sensor_id;sensor_type;location;lat;lon;timestamp;temperature;humidity
14014;DHT22;49110;52.584;13.408;2024-02-04T00:00:40;9.90;99.90
14014;DHT22;49110;52.584;13.408;2024-02-04T00:01:41;9.90;99.90
14014;DHT22;49110;52.584;13.408;2024-02-04T00:02:41;9.90;99.90
14014;DHT22;49110;52.584;13.408;2024-02-04T00:03:42;9.90;99.90
14014;DHT22;49110;52.584;13.408;2024-02-04T00:04:42;9.90;99.90
14014;DHT22;49110;52.584;13.408;2024-02-04T00:05:42;9.90;99.90
14014;DHT22;49110;52.584;13.408;2024-02-04T00:06:43;9.90;99.90
14014;DHT22;49110;52.584;13.408;2024-02-04T00:07:44;9.90;99.90
14014;DHT22;49110;52.584;13.408;2024-02-04T00:08:44;9.90;99.90
14014;DHT22;49110;52.584;13.408;2024-02-04T00:09:45;10.00;99.90
14014;DHT22;49110;52.584;13.408;2024-02-04T00:10:45;9.90;99.90
14014;DHT22;49110;52.584;13.408;2024-02-04T00:11:46;9.90;99.90
14014;DHT22;49110;52.584;13.408;2024-02-04T00:12:46;9.90;99.90
14014;DHT22;49110;52.584;13.408;2024-02-04T00:13:47;9.90;99.90
14014;DHT22;49110;52.584;13.408;2024-02-04T00:14:47;9.90;99.90
14014;DHT22;49110;52.584;13.408;2024-02-04T00:15:50;10.00;99.90
14014;DHT22;49110;52.584;13.408;2024-02-04T00:16:50;10.00;99.90
14014;DHT22;49110;52.584;13.408;2024-02-04T00:17:50;10.00;99.90
14014;DHT22;49110;52.584;13.408;2024-02-04T00:18:51;9.90;99.90
14014;DHT22;49110;52.584;13.408;2024-02-04T00:19:51;9.90;99.90
14014;DHT22;49110;52.584;13.408;2024-02-04T00:20:52;9.90;99.90
14014;DHT22;49110;52.584;13.408;2024-02-04T00:21:53;9.90;99.90
14014;DHT22;49110;52.584;13.408;2024-02-04T00:22:53;10.00;99.90
14014;DHT22;49110;52.584;13.408;2024-02-04T00:23:53;9.90;99.90
14014;DHT22;49110;52.584;13.408;2024-02-04T00:24:54;10.00;99.90
14014;DHT22;49110;52.584;13.408;2024-02-04T00:25:54;10.00;99.90
14014;DHT22;49110;52.584;13.408;2024-02-04T00:26:55;9.80;99.90
14014;DHT22;49110;52.584;13.408;2024-02-04T00:27:55;9.80;99.90
14014;DHT22;49110;52.584;13.408;2024-02-04T00:28:56;9.80;99.90
14014;DHT22;49110;52.584;13.408;2024-02-04T00:29:57;9.80;99.90
14014;DHT22;49110;52.584;13.408;2024-02-04T00:30:58;9.70;99.90
14014;DHT22;49110;52.584;13.408;2024-02-04T00:31:59;9.80;99.90
14014;DHT22;49110;52.584;13.408;2024-02-04T00:33:00;9.70;99.90
14014;DHT22;49110;52.584;13.408;2024-02-04T00:34:03;9.70;99.90
14014;DHT22;49110;52.584;13.408;2024-02-04T00:35:05;9.80;99.90
14014;DHT22;49110;52.584;13.408;2024-02-04T00:36:06;9.60;99.90
14014;DHT22;49110;52.584;13.408;2024-02-04T00:37:07;9.60;99.90
14014;DHT22;49110;52.584;13.408;2024-02-04T00:38:08;9.60;99.90
14014;DHT22;49110;52.584;13.408;2024-02-04T00:39:09;9.60;99.90
14014;DHT22;49110;52.584;13.408;2024-02-04T00:40:10;9.60;99.90
14014;DHT22;49110;52.584;13.408;2024-02-04T00:41:11;9.60;99.90
14014;DHT22;49110;52.584;13.408;2024-02-04T00:42:11;9.60;99.90
14014;DHT22;49110;52.584;13.408;2024-02-04T00:43:12;9.50;99.90
14014;DHT22;49110;52.584;13.408;2024-02-04T00:44:12;9.50;99.90
14014;DHT22;49110;52.584;13.408;2024-02-04T00:45:13;9.50;99.90
14014;DHT22;49110;52.584;13.408;2024-02-04T00:46:13;9.50;99.90
14014;DHT22;49110;52.584;13.408;2024-02-04T00:47:14;9.50;99.90
14014;DHT22;49110;52.584;13.408;2024-02-04T00:48:14;9.50;99.90
14014;DHT22;49110;52.584;13.408;2024-02-04T00:49:15;9.50;99.90
14014;DHT22;49110;52.584;13.408;2024-02-04T00:50:15;9.40;99.90
14014;DHT22;49110;52.584;13.408;2024-02-04T00:51:16;9.40;99.90
14014;DHT22;49110;52.584;13.408;2024-02-04T00:52:20;9.40;99.90
14014;DHT22;49110;52.584;13.408;2024-02-04T00:53:20;9.30;99.90
14014;DHT22;49110;52.584;13.408;2024-02-04T00:54:20;9.30;99.90
14014;DHT22;49110;52.584;13.408;2024-02-04T00:55:21;9.30;99.90
14014;DHT22;49110;52.584;13.408;2024-02-04T00:56:21;9.30;99.90
14014;DHT22;49110;52.584;13.408;2024-02-04T00:57:22;9.20;99.90
14014;DHT22;49110;52.584;13.408;2024-02-04T00:58:22;9.20;99.90
14014;DHT22;49110;52.584;13.408;2024-02-04T00:59:23;9.30;99.90
14014;DHT22;49110;52.584;13.408;2024-02-04T01:00:23;9.20;99.90
14014;DHT22;49110;52.584;13.408;2024-02-04T01:01:24;9.20;99.90
14014;DHT22;49110;52.584;13.408;2024-02-04T01:02:24;9.20;99.90
14014;DHT22;49110;52.584;13.408;2024-02-04T01:03:25;9.20;99.90
14014;DHT22;49110;52.584;13.408;2024-02-04T01:04:25;9.20;99.90
14014;DHT22;49110;52.584;13.408;2024-02-04T01:05:26;9.20;99.90
14014;DHT22;49110;52.584;13.408;2024-02-04T01:06:26;9.20;99.90
14014;DHT22;49110;52.584;13.408;2024-02-04T01:07:28;9.20;99.90
14014;DHT22;49110;52.584;13.408;2024-02-04T01:08:28;9.20;99.90
14014;DHT22;49110;52.584;13.408;2024-02-04T01:09:29;9.20;99.90
14014;DHT22;49110;52.584;13.408;2024-02-04T01:10:29;9.20;99.90
14014;DHT22;49110;52.584;13.408;2024-02-04T01:11:30;9.20;99.90
14014;DHT22;49110;52.584;13.408;2024-02-04T01:12:30;9.20;99.90
14014;DHT22;49110;52.584;13.408;2024-02-04T01:13:31;9.20;99.90
14014;DHT22;49110;52.584;13.408;2024-02-04T01:14:31;9.20;99.90
14014;DHT22;49110;52.584;13.408;2024-02-04T01:15:31;9.20;99.90
14014;DHT22;49110;52.584;13.408;2024-02-04T01:16:32;9.10;99.90
14014;DHT22;49110;52.584;13.408;2024-02-04T01:17:32;9.10;99.90
14014;DHT22;49110;52.584;13.408;2024-02-04T01:18:34;9.10;99.90
14014;DHT22;49110;52.584;13.408;2024-02-04T01:19:34;9.10;99.90
14014;DHT22;49110;52.584;13.408;2024-02-04T01:20:35;9.10;99.90
14014;DHT22;49110;52.584;13.408;2024-02-04T01:21:35;9.10;99.90
14014;DHT22;49110;52.584;13.408;2024-02-04T01:22:36;9.10;99.90
14014;DHT22;49110;52.584;13.408;2024-02-04T01:23:36;9.10;99.90
14014;DHT22;49110;52.584;13.408;2024-02-04T01:24:37;9.10;99.90
14014;DHT22;49110;52.584;13.408;2024-02-04T01:25:37;9.10;99.90
14014;DHT22;49110;52.584;13.408;2024-02-04T01:26:38;9.20;99.90
14014;DHT22;49110;52.584;13.408;2024-02-04T01:27:38;9.20;99.90
14014;DHT22;49110;52.584;13.408;2024-02-04T01:28:39;9.30;99.90
14014;DHT22;49110;52.584;13.408;2024-02-04T01:29:39;9.30;99.90
14014;DHT22;49110;52.584;13.408;2024-02-04T01:30:40;9.30;99.90
14014;DHT22;49110;52.584;13.408;2024-02-04T01:31:40;9.20;99.90
14014;DHT22;49110;52.584;13.408;2024-02-04T01:32:40;9.10;99.90
14014;DHT22;49110;52.584;13.408;2024-02-04T01:33:41;9.00;99.90
14014;DHT22;49110;52.584;13.408;2024-02-04T01:34:42;9.10;99.90
14014;DHT22;49110;52.584;13.408;2024-02-04T01:35:42;9.10;99.90
14014;DHT22;49110;52.584;13.408;2024-02-04T01:36:42;9.00;99.90
14014;DHT22;49110;52.584;13.408;2024-02-04T01:37:43;9.00;99.90
14014;DHT22;49110;52.584;13.408;2024-02-04T01:38:43;9.00;99.90
14014;DHT22;49110;52.584;13.408;2024-02-04T01:39:44;9.00;99.90
14014;DHT22;49110;52.584;13.408;2024-02-04T01:40:44;9.00;99.90
14014;DHT22;49110;52.584;13.408;2024-02-04T01:41:46;9.00;99.90
14014;DHT22;49110;52.584;13.408;2024-02-04T01:42:47;9.00;99.90
14014;DHT22;49110;52.584;13.408;2024-02-04T01:43:47;9.00;99.90
14014;DHT22;49110;52.584;13.408;2024-02-04T01:44:48;9.00;99.90
14014;DHT22;49110;52.584;13.408;2024-02-04T01:45:50;9.00;99.90
14014;DHT22;49110;52.584;13.408;2024-02-04T01:46:50;9.00;99.90
14014;DHT22;49110;52.584;13.408;2024-02-04T01:47:51;9.00;99.90
14014;DHT22;49110;52.584;13.408;2024-02-04T01:48:51;9.00;99.90
14014;DHT22;49110;52.584;13.408;2024-02-04T01:49:52;9.00;99.90
14014;DHT22;49110;52.584;13.408;2024-02-04T01:50:54;8.90;99.90
14014;DHT22;49110;52.584;13.408;2024-02-04T01:51:58;9.00;99.90
14014;DHT22;49110;52.584;13.408;2024-02-04T01:52:59;9.00;99.90
14014;DHT22;49110;52.584;13.408;2024-02-04T01:54:00;8.90;99.90
14014;DHT22;49110;52.584;13.408;2024-02-04T01:55:01;8.90;99.90
14014;DHT22;49110;52.584;13.408;2024-02-04T01:56:03;8.90;99.90
14014;DHT22;49110;52.584;13.408;2024-02-04T01:57:04;8.90;99.90
14014;DHT22;49110;52.584;13.408;2024-02-04T01:58:04;8.90;99.90
14014;DHT22;49110;52.584;13.408;2024-02-04T01:59:05;8.90;99.90
14014;DHT22;49110;52.584;13.408;2024-02-04T02:00:06;8.90;99.90
14014;DHT22;49110;52.584;13.408;2024-02-04T02:01:09;8.90;99.90
14014;DHT22;49110;52.584;13.408;2024-02-04T02:02:10;8.90;99.90
14014;DHT22;49110;52.584;13.408;2024-02-04T02:03:12;8.90;99.90
14014;DHT22;49110;52.584;13.408;2024-02-04T02:04:12;8.90;99.90
14014;DHT22;49110;52.584;13.408;2024-02-04T02:05:13;8.90;99.90
14014;DHT22;49110;52.584;13.408;2024-02-04T02:06:14;8.90;99.90
14014;DHT22;49110;52.584;13.408;2024-02-04T02:07:15;8.90;99.90
14014;DHT22;49110;52.584;13.408;2024-02-04T02:08:18;8.90;99.90
14014;DHT22;49110;52.584;13.408;2024-02-04T02:09:19;8.90;99.90
14014;DHT22;49110;52.584;13.408;2024-02-04T02:10:20;8.90;99.90
14014;DHT22;49110;52.584;13.408;2024-02-04T02:11:46;8.90;99.90
14014;DHT22;49110;52.584;13.408;2024-02-04T02:13:03;8.90;99.90
14014;DHT22;49110;52.584;13.408;2024-02-04T02:14:06;8.80;99.90
14014;DHT22;49110;52.584;13.408;2024-02-04T02:15:18;8.90;99.90
14014;DHT22;49110;52.584;13.408;2024-02-04T02:16:21;8.80;99.90
14014;DHT22;49110;52.584;13.408;2024-02-04T02:17:30;8.80;99.90
14014;DHT22;49110;52.584;13.408;2024-02-04T02:18:49;8.80;99.90
14014;DHT22;49110;52.584;13.408;2024-02-04T02:19:59;8.80;99.90
14014;DHT22;49110;52.584;13.408;2024-02-04T02:21:31;8.80;99.90
14014;DHT22;49110;52.584;13.408;2024-02-04T02:22:46;8.80;99.90
14014;DHT22;49110;52.584;13.408;2024-02-04T02:24:05;8.80;99.90
14014;DHT22;49110;52.584;13.408;2024-02-04T02:25:08;8.80;99.90
14014;DHT22;49110;52.584;13.408;2024-02-04T02:26:09;8.80;99.90
14014;DHT22;49110;52.584;13.408;2024-02-04T02:27:10;8.80;99.90
14014;DHT22;49110;52.584;13.408;2024-02-04T02:28:10;8.70;99.90
14014;DHT22;49110;52.584;13.408;2024-02-04T02:29:11;8.70;99.90
14014;DHT22;49110;52.584;13.408;2024-02-04T02:30:12;8.80;99.90
14014;DHT22;49110;52.584;13.408;2024-02-04T02:31:13;8.70;99.90
14014;DHT22;49110;52.584;13.408;2024-02-04T02:32:13;8.70;99.90
14014;DHT22;49110;52.584;13.408;2024-02-04T02:33:14;8.70;99.90
14014;DHT22;49110;52.584;13.408;2024-02-04T02:34:16;8.70;99.90
14014;DHT22;49110;52.584;13.408;2024-02-04T02:35:17;8.70;99.90
14014;DHT22;49110;52.584;13.408;2024-02-04T02:36:21;8.70;99.90
14014;DHT22;49110;52.584;13.408;2024-02-04T02:37:34;8.70;99.90
14014;DHT22;49110;52.584;13.408;2024-02-04T02:38:46;8.70;99.90
14014;DHT22;49110;52.584;13.408;2024-02-04T02:39:59;8.80;99.90
14014;DHT22;49110;52.584;13.408;2024-02-04T02:41:04;8.80;99.90
14014;DHT22;49110;52.584;13.408;2024-02-04T02:42:07;8.70;99.90
14014;DHT22;49110;52.584;13.408;2024-02-04T02:43:10;8.70;99.90
14014;DHT22;49110;52.584;13.408;2024-02-04T02:44:12;8.70;99.90
14014;DHT22;49110;52.584;13.408;2024-02-04T02:45:14;8.70;99.90
14014;DHT22;49110;52.584;13.408;2024-02-04T02:46:16;8.70;99.90
14014;DHT22;49110;52.584;13.408;2024-02-04T02:47:18;8.70;99.90
14014;DHT22;49110;52.584;13.408;2024-02-04T02:48:19;8.70;99.90
14014;DHT22;49110;52.584;13.408;2024-02-04T02:49:20;8.80;99.90
14014;DHT22;49110;52.584;13.408;2024-02-04T02:50:20;8.80;99.90
14014;DHT22;49110;52.584;13.408;2024-02-04T02:51:21;8.80;99.90
14014;DHT22;49110;52.584;13.408;2024-02-04T02:52:22;8.90;99.90
14014;DHT22;49110;52.584;13.408;2024-02-04T02:53:22;8.90;99.90
14014;DHT22;49110;52.584;13.408;2024-02-04T02:54:23;8.90;99.90
14014;DHT22;49110;52.584;13.408;2024-02-04T02:55:23;8.90;99.90
14014;DHT22;49110;52.584;13.408;2024-02-04T02:56:23;9.00;99.90
14014;DHT22;49110;52.584;13.408;2024-02-04T02:57:24;9.10;99.90
14014;DHT22;49110;52.584;13.408;2024-02-04T02:58:24;9.10;99.90
14014;DHT22;49110;52.584;13.408;2024-02-04T02:59:25;9.10;99.90
14014;DHT22;49110;52.584;13.408;2024-02-04T03:00:25;9.20;99.90
14014;DHT22;49110;52.584;13.408;2024-02-04T03:01:26;9.20;99.90
14014;DHT22;49110;52.584;13.408;2024-02-04T03:02:26;9.20;99.90
14014;DHT22;49110;52.584;13.408;2024-02-04T03:03:27;9.30;99.90
14014;DHT22;49110;52.584;13.408;2024-02-04T03:04:27;9.30;99.90
14014;DHT22;49110;52.584;13.408;2024-02-04T03:05:28;9.20;99.90
14014;DHT22;49110;52.584;13.408;2024-02-04T03:06:28;9.20;99.90
14014;DHT22;49110;52.584;13.408;2024-02-04T03:07:29;9.20;99.90
14014;DHT22;49110;52.584;13.408;2024-02-04T03:08:29;9.30;99.90
14014;DHT22;49110;52.584;13.408;2024-02-04T03:09:29;9.30;99.90
14014;DHT22;49110;52.584;13.408;2024-02-04T03:10:30;9.30;99.90
14014;DHT22;49110;52.584;13.408;2024-02-04T03:11:30;9.30;99.90
14014;DHT22;49110;52.584;13.408;2024-02-04T03:12:31;9.30;99.90
14014;DHT22;49110;52.584;13.408;2024-02-04T03:13:31;9.30;99.90
14014;DHT22;49110;52.584;13.408;2024-02-04T03:14:31;9.30;99.90
14014;DHT22;49110;52.584;13.408;2024-02-04T03:15:32;9.30;99.90
14014;DHT22;49110;52.584;13.408;2024-02-04T03:16:32;9.30;99.90
14014;DHT22;49110;52.584;13.408;2024-02-04T03:17:33;9.30;99.90
14014;DHT22;49110;52.584;13.408;2024-02-04T03:18:33;9.30;99.90
14014;DHT22;49110;52.584;13.408;2024-02-04T03:19:34;9.40;99.90
14014;DHT22;49110;52.584;13.408;2024-02-04T03:20:34;9.30;99.90
14014;DHT22;49110;52.584;13.408;2024-02-04T03:21:35;9.40;99.90
14014;DHT22;49110;52.584;13.408;2024-02-04T03:22:35;9.40;99.90
14014;DHT22;49110;52.584;13.408;2024-02-04T03:23:35;9.30;99.90
14014;DHT22;49110;52.584;13.408;2024-02-04T03:24:36;9.40;99.90
14014;DHT22;49110;52.584;13.408;2024-02-04T03:25:36;9.40;99.90
14014;DHT22;49110;52.584;13.408;2024-02-04T03:26:37;9.40;99.90
14014;DHT22;49110;52.584;13.408;2024-02-04T03:27:39;9.40;99.90
14014;DHT22;49110;52.584;13.408;2024-02-04T03:28:40;9.40;99.90
14014;DHT22;49110;52.584;13.408;2024-02-04T03:29:40;9.40;99.90
14014;DHT22;49110;52.584;13.408;2024-02-04T03:30:41;9.40;99.90
14014;DHT22;49110;52.584;13.408;2024-02-04T03:31:41;9.40;99.90
14014;DHT22;49110;52.584;13.408;2024-02-04T03:32:41;9.40;99.90
14014;DHT22;49110;52.584;13.408;2024-02-04T03:33:42;9.40;99.90
14014;DHT22;49110;52.584;13.408;2024-02-04T03:34:42;9.40;99.90
14014;DHT22;49110;52.584;13.408;2024-02-04T03:35:43;9.40;99.90
14014;DHT22;49110;52.584;13.408;2024-02-04T03:36:43;9.40;99.90
14014;DHT22;49110;52.584;13.408;2024-02-04T03:37:44;9.40;99.90
14014;DHT22;49110;52.584;13.408;2024-02-04T03:38:44;9.40;99.90
14014;DHT22;49110;52.584;13.408;2024-02-04T03:39:45;9.30;99.90
14014;DHT22;49110;52.584;13.408;2024-02-04T03:40:45;9.30;99.90
14014;DHT22;49110;52.584;13.408;2024-02-04T03:41:46;9.30;99.90
14014;DHT22;49110;52.584;13.408;2024-02-04T03:42:46;9.30;99.90
14014;DHT22;49110;52.584;13.408;2024-02-04T03:43:47;9.30;99.90
14014;DHT22;49110;52.584;13.408;2024-02-04T03:44:48;9.40;99.90
14014;DHT22;49110;52.584;13.408;2024-02-04T03:45:48;9.40;99.90
14014;DHT22;49110;52.584;13.408;2024-02-04T03:46:49;9.30;99.90
14014;DHT22;49110;52.584;13.408;2024-02-04T03:47:50;9.40;99.90
14014;DHT22;49110;52.584;13.408;2024-02-04T03:48:51;9.30;99.90
14014;DHT22;49110;52.584;13.408;2024-02-04T03:49:51;9.30;99.90
14014;DHT22;49110;52.584;13.408;2024-02-04T03:50:51;9.30;99.90
14014;DHT22;49110;52.584;13.408;2024-02-04T03:51:52;9.30;99.90
14014;DHT22;49110;52.584;13.408;2024-02-04T03:52:52;9.20;99.90
14014;DHT22;49110;52.584;13.408;2024-02-04T03:53:53;9.20;99.90
14014;DHT22;49110;52.584;13.408;2024-02-04T03:54:53;9.20;99.90
14014;DHT22;49110;52.584;13.408;2024-02-04T03:55:54;9.20;99.90
14014;DHT22;49110;52.584;13.408;2024-02-04T03:56:54;9.20;99.90
14014;DHT22;49110;52.584;13.408;2024-02-04T03:57:55;9.10;99.90
14014;DHT22;49110;52.584;13.408;2024-02-04T03:58:57;9.10;99.90
14014;DHT22;49110;52.584;13.408;2024-02-04T03:59:58;9.10;99.90
14014;DHT22;49110;52.584;13.408;2024-02-04T04:00:58;9.10;99.90
14014;DHT22;49110;52.584;13.408;2024-02-04T04:02:00;9.10;99.90
14014;DHT22;49110;52.584;13.408;2024-02-04T04:03:00;9.00;99.90
14014;DHT22;49110;52.584;13.408;2024-02-04T04:04:01;9.00;99.90
14014;DHT22;49110;52.584;13.408;2024-02-04T04:05:01;9.00;99.90
14014;DHT22;49110;52.584;13.408;2024-02-04T04:06:02;9.10;99.90
14014;DHT22;49110;52.584;13.408;2024-02-04T04:07:03;9.10;99.90
14014;DHT22;49110;52.584;13.408;2024-02-04T04:08:04;9.10;99.90
14014;DHT22;49110;52.584;13.408;2024-02-04T04:09:04;9.10;99.90
14014;DHT22;49110;52.584;13.408;2024-02-04T04:10:06;9.10;99.90
14014;DHT22;49110;52.584;13.408;2024-02-04T04:11:09;9.10;99.90
14014;DHT22;49110;52.584;13.408;2024-02-04T04:12:09;9.10;99.90
14014;DHT22;49110;52.584;13.408;2024-02-04T04:13:10;9.10;99.90
14014;DHT22;49110;52.584;13.408;2024-02-04T04:14:10;9.10;99.90
14014;DHT22;49110;52.584;13.408;2024-02-04T04:15:11;9.10;99.90
14014;DHT22;49110;52.584;13.408;2024-02-04T04:16:11;9.00;99.90
14014;DHT22;49110;52.584;13.408;2024-02-04T04:17:12;9.00;99.90
14014;DHT22;49110;52.584;13.408;2024-02-04T04:18:12;9.00;99.90
14014;DHT22;49110;52.584;13.408;2024-02-04T04:19:13;9.00;99.90
14014;DHT22;49110;52.584;13.408;2024-02-04T04:20:13;9.00;99.90
14014;DHT22;49110;52.584;13.408;2024-02-04T04:21:14;8.90;99.90
14014;DHT22;49110;52.584;13.408;2024-02-04T04:22:14;8.90;99.90
14014;DHT22;49110;52.584;13.408;2024-02-04T04:23:15;8.90;99.90
14014;DHT22;49110;52.584;13.408;2024-02-04T04:24:15;8.90;99.90
14014;DHT22;49110;52.584;13.408;2024-02-04T04:25:19;8.90;99.90
14014;DHT22;49110;52.584;13.408;2024-02-04T04:26:20;8.90;99.90
14014;DHT22;49110;52.584;13.408;2024-02-04T04:27:20;8.90;99.90
14014;DHT22;49110;52.584;13.408;2024-02-04T04:28:21;8.90;99.90
14014;DHT22;49110;52.584;13.408;2024-02-04T04:29:21;8.90;99.90
14014;DHT22;49110;52.584;13.408;2024-02-04T04:30:22;8.80;99.90
14014;DHT22;49110;52.584;13.408;2024-02-04T04:31:22;8.90;99.90
14014;DHT22;49110;52.584;13.408;2024-02-04T04:32:23;8.90;99.90
14014;DHT22;49110;52.584;13.408;2024-02-04T04:33:23;8.90;99.90
14014;DHT22;49110;52.584;13.408;2024-02-04T04:34:24;8.90;99.90
14014;DHT22;49110;52.584;13.408;2024-02-04T04:35:24;8.80;99.90
14014;DHT22;49110;52.584;13.408;2024-02-04T04:36:25;8.80;99.90
14014;DHT22;49110;52.584;13.408;2024-02-04T04:37:25;8.80;99.90
14014;DHT22;49110;52.584;13.408;2024-02-04T04:38:26;8.90;99.90
14014;DHT22;49110;52.584;13.408;2024-02-04T04:39:26;8.80;99.90
14014;DHT22;49110;52.584;13.408;2024-02-04T04:40:27;8.80;99.90
14014;DHT22;49110;52.584;13.408;2024-02-04T04:41:27;8.80;99.90
14014;DHT22;49110;52.584;13.408;2024-02-04T04:42:28;8.80;99.90
14014;DHT22;49110;52.584;13.408;2024-02-04T04:43:28;8.80;99.90
14014;DHT22;49110;52.584;13.408;2024-02-04T04:44:29;8.80;99.90
14014;DHT22;49110;52.584;13.408;2024-02-04T04:45:29;8.80;99.90
14014;DHT22;49110;52.584;13.408;2024-02-04T04:46:30;8.80;99.90
14014;DHT22;49110;52.584;13.408;2024-02-04T04:47:30;8.90;99.90
14014;DHT22;49110;52.584;13.408;2024-02-04T04:48:30;8.90;99.90
14014;DHT22;49110;52.584;13.408;2024-02-04T04:49:31;8.90;99.90
14014;DHT22;49110;52.584;13.408;2024-02-04T04:50:31;8.90;99.90
14014;DHT22;49110;52.584;13.408;2024-02-04T04:51:32;8.90;99.90
14014;DHT22;49110;52.584;13.408;2024-02-04T04:52:32;9.00;99.90
14014;DHT22;49110;52.584;13.408;2024-02-04T04:53:33;9.00;99.90
14014;DHT22;49110;52.584;13.408;2024-02-04T04:54:34;9.00;99.90
14014;DHT22;49110;52.584;13.408;2024-02-04T04:55:34;9.00;99.90
14014;DHT22;49110;52.584;13.408;2024-02-04T04:56:39;9.00;99.90
14014;DHT22;49110;52.584;13.408;2024-02-04T04:57:40;9.00;99.90
14014;DHT22;49110;52.584;13.408;2024-02-04T04:58:40;9.00;99.90
14014;DHT22;49110;52.584;13.408;2024-02-04T04:59:40;9.00;99.90
14014;DHT22;49110;52.584;13.408;2024-02-04T05:00:41;9.00;99.90
14014;DHT22;49110;52.584;13.408;2024-02-04T05:01:46;9.00;99.90
14014;DHT22;49110;52.584;13.408;2024-02-04T05:02:46;9.00;99.90
14014;DHT22;49110;52.584;13.408;2024-02-04T05:03:48;9.00;99.90
14014;DHT22;49110;52.584;13.408;2024-02-04T05:04:48;9.00;99.90
14014;DHT22;49110;52.584;13.408;2024-02-04T05:05:49;8.90;99.90
14014;DHT22;49110;52.584;13.408;2024-02-04T05:06:49;9.00;99.90
14014;DHT22;49110;52.584;13.408;2024-02-04T05:07:50;8.90;99.90
14014;DHT22;49110;52.584;13.408;2024-02-04T05:08:50;8.90;99.90
14014;DHT22;49110;52.584;13.408;2024-02-04T05:09:51;8.90;99.90
14014;DHT22;49110;52.584;13.408;2024-02-04T05:10:51;8.90;99.90
14014;DHT22;49110;52.584;13.408;2024-02-04T05:11:52;8.90;99.90
14014;DHT22;49110;52.584;13.408;2024-02-04T05:12:52;8.90;99.90
14014;DHT22;49110;52.584;13.408;2024-02-04T05:13:53;8.90;99.90
14014;DHT22;49110;52.584;13.408;2024-02-04T05:14:53;8.90;99.90
14014;DHT22;49110;52.584;13.408;2024-02-04T05:15:53;8.80;99.90
14014;DHT22;49110;52.584;13.408;2024-02-04T05:16:54;8.80;99.90
14014;DHT22;49110;52.584;13.408;2024-02-04T05:17:54;8.80;99.90
14014;DHT22;49110;52.584;13.408;2024-02-04T05:18:55;8.80;99.90
14014;DHT22;49110;52.584;13.408;2024-02-04T05:19:55;8.80;99.90
14014;DHT22;49110;52.584;13.408;2024-02-04T05:20:56;8.80;99.90
14014;DHT22;49110;52.584;13.408;2024-02-04T05:21:56;8.80;99.90
14014;DHT22;49110;52.584;13.408;2024-02-04T05:22:57;8.80;99.90
14014;DHT22;49110;52.584;13.408;2024-02-04T05:23:58;8.80;99.90
14014;DHT22;49110;52.584;13.408;2024-02-04T05:24:58;8.80;99.90
14014;DHT22;49110;52.584;13.408;2024-02-04T05:26:05;8.90;99.90
14014;DHT22;49110;52.584;13.408;2024-02-04T05:27:06;8.90;99.90
14014;DHT22;49110;52.584;13.408;2024-02-04T05:28:06;8.90;99.90
14014;DHT22;49110;52.584;13.408;2024-02-04T05:29:07;8.90;99.90
14014;DHT22;49110;52.584;13.408;2024-02-04T05:30:08;8.90;99.90
14014;DHT22;49110;52.584;13.408;2024-02-04T05:31:08;8.90;99.90
14014;DHT22;49110;52.584;13.408;2024-02-04T05:32:08;8.90;99.90
14014;DHT22;49110;52.584;13.408;2024-02-04T05:33:09;8.80;99.90
14014;DHT22;49110;52.584;13.408;2024-02-04T05:34:13;8.80;99.90
14014;DHT22;49110;52.584;13.408;2024-02-04T05:35:14;8.80;99.90
14014;DHT22;49110;52.584;13.408;2024-02-04T05:36:14;8.80;99.90
14014;DHT22;49110;52.584;13.408;2024-02-04T05:37:15;8.80;99.90
14014;DHT22;49110;52.584;13.408;2024-02-04T05:38:18;8.80;99.90
14014;DHT22;49110;52.584;13.408;2024-02-04T05:39:19;8.80;99.90
14014;DHT22;49110;52.584;13.408;2024-02-04T05:40:19;8.70;99.90
14014;DHT22;49110;52.584;13.408;2024-02-04T05:41:20;8.70;99.90
14014;DHT22;49110;52.584;13.408;2024-02-04T05:42:21;8.70;99.90
14014;DHT22;49110;52.584;13.408;2024-02-04T05:43:21;8.70;99.90
14014;DHT22;49110;52.584;13.408;2024-02-04T05:44:22;8.70;99.90
14014;DHT22;49110;52.584;13.408;2024-02-04T05:45:22;8.70;99.90
14014;DHT22;49110;52.584;13.408;2024-02-04T05:46:23;8.70;99.90
14014;DHT22;49110;52.584;13.408;2024-02-04T05:47:23;8.70;99.90
14014;DHT22;49110;52.584;13.408;2024-02-04T05:48:24;8.70;99.90
14014;DHT22;49110;52.584;13.408;2024-02-04T05:49:24;8.60;99.90
14014;DHT22;49110;52.584;13.408;2024-02-04T05:50:25;8.60;99.90
14014;DHT22;49110;52.584;13.408;2024-02-04T05:51:25;8.60;99.90
14014;DHT22;49110;52.584;13.408;2024-02-04T05:52:26;8.60;99.90
14014;DHT22;49110;52.584;13.408;2024-02-04T05:53:26;8.50;99.90
14014;DHT22;49110;52.584;13.408;2024-02-04T05:54:26;8.50;99.90
14014;DHT22;49110;52.584;13.408;2024-02-04T05:55:27;8.50;99.90
14014;DHT22;49110;52.584;13.408;2024-02-04T05:56:27;8.50;99.90
14014;DHT22;49110;52.584;13.408;2024-02-04T05:57:28;8.50;99.90
14014;DHT22;49110;52.584;13.408;2024-02-04T05:58:28;8.50;99.90
14014;DHT22;49110;52.584;13.408;2024-02-04T05:59:29;8.50;99.90
14014;DHT22;49110;52.584;13.408;2024-02-04T06:00:30;8.50;99.90
14014;DHT22;49110;52.584;13.408;2024-02-04T06:01:30;8.50;99.90
14014;DHT22;49110;52.584;13.408;2024-02-04T06:02:31;8.50;99.90
14014;DHT22;49110;52.584;13.408;2024-02-04T06:03:32;8.50;99.90
14014;DHT22;49110;52.584;13.408;2024-02-04T06:04:32;8.50;99.90
14014;DHT22;49110;52.584;13.408;2024-02-04T06:05:33;8.50;99.90
14014;DHT22;49110;52.584;13.408;2024-02-04T06:06:33;8.50;99.90
14014;DHT22;49110;52.584;13.408;2024-02-04T06:07:34;8.50;99.90
14014;DHT22;49110;52.584;13.408;2024-02-04T06:08:34;8.50;99.90
14014;DHT22;49110;52.584;13.408;2024-02-04T06:09:35;8.50;99.90
14014;DHT22;49110;52.584;13.408;2024-02-04T06:10:36;8.60;99.90
14014;DHT22;49110;52.584;13.408;2024-02-04T06:11:36;8.50;99.90
14014;DHT22;49110;52.584;13.408;2024-02-04T06:12:37;8.50;99.90
14014;DHT22;49110;52.584;13.408;2024-02-04T06:13:42;8.50;99.90
14014;DHT22;49110;52.584;13.408;2024-02-04T06:14:43;8.60;99.90
14014;DHT22;49110;52.584;13.408;2024-02-04T06:15:44;8.60;99.90
14014;DHT22;49110;52.584;13.408;2024-02-04T06:16:44;8.70;99.90
14014;DHT22;49110;52.584;13.408;2024-02-04T06:17:45;8.70;99.90
14014;DHT22;49110;52.584;13.408;2024-02-04T06:18:45;8.70;99.90
14014;DHT22;49110;52.584;13.408;2024-02-04T06:19:46;8.80;99.90
14014;DHT22;49110;52.584;13.408;2024-02-04T06:20:46;8.80;99.90
14014;DHT22;49110;52.584;13.408;2024-02-04T06:21:46;8.80;99.90
14014;DHT22;49110;52.584;13.408;2024-02-04T06:22:47;8.70;99.90
14014;DHT22;49110;52.584;13.408;2024-02-04T06:23:47;8.80;99.90
14014;DHT22;49110;52.584;13.408;2024-02-04T06:24:48;8.80;99.90
14014;DHT22;49110;52.584;13.408;2024-02-04T06:25:50;8.80;99.90
14014;DHT22;49110;52.584;13.408;2024-02-04T06:26:50;8.80;99.90